WESTPORT MEDIA Westport In The Media

Enter your "Place, State", US Zip Code or ICAO:  

Nice, France

 Lat: 43.65N, Lon: 7.20E
ICAO Used: LFMN
Current Conditions
Updated: 12:00 AM GMT1 TUE SEP 2 2014
Sun & Moon Information
Fair
Fair
Temp: 21°C
Humidity: 49%
Wind Speed: NW 5 MPH
Barometer: 1010 mb
Dewpoint: 10°C
Heat Index: 21°C
Wind Chill: 21°C
Civil Twilight: 5:23 AM GMT1 Moon Phase:
Waxing Gibbous Moon
Sunrise: 5:53 AM GMT1
Sunset: 7:08 PM GMT1
Civil Twilight: 7:37 PM GMT1
Forecast for Nice, France:
(Forecast based on TAF for )
0900 AM GMT1 MON SEP 01 2014
  
MORNING AFTERNOON EVENING OVERNIGHT
Fair Fair Fair Fair
ZoneCast:
Dated: 0900 AM GMT1 MON SEP 01 2014
Morning...Becoming fair with winds from the south at 9 mph.

Afternoon...Fair with winds from the south at 9 mph.

Evening...Fair with winds from the south at 9 mph.

Overnight...Fair with winds from the northnorthwest at 8 mph.

Original Encoded TAF:
Dated: 0900 AM GMT1 MON SEP 01 2014
TAF LFMN 012300Z 0200/0306 34007KT CAVOK 
     BECMG 0208/0210 17008KT 
     BECMG 0218/0220 34007KT